Time;durP1;ratioP1;P1;durP2;ratioP2;P2;SDS_P1;SDS_P2;PMS_P1;PMS_P2;Temp;Humidity;BMP_temperature;BMP_pressure;BME280_temperature;BME280_humidity;BME280_pressure;Samples;Min_cycle;Max_cycle;Signal;HPM_P1;HPM_P2
2021/03/18 00:01:58;;;;;;;12.20;7.70;;;;;;;4.69;54.11;98537.56;8331636;28;20213;-62
2021/03/18 00:06:00;;;;;;;8.33;6.50;;;;;;;4.65;53.83;98541.03;8331417;28;20205;-63
2021/03/18 00:10:05;;;;;;;9.07;6.83;;;;;;;4.60;53.48;98548.75;8330686;28;20209;-63
2021/03/18 00:14:08;;;;;;;9.60;6.70;;;;;;;4.75;53.79;98537.47;8331912;28;20220;-62
2021/03/18 00:18:12;;;;;;;12.87;7.03;;;;;;;4.62;53.70;98531.63;8331457;28;20228;-62
2021/03/18 00:22:14;;;;;;;12.07;6.77;;;;;;;4.53;53.86;98530.88;8331207;28;20212;-62
2021/03/18 00:26:18;;;;;;;9.07;6.43;;;;;;;4.48;53.36;98534.34;8330171;28;20216;-62
2021/03/18 00:30:21;;;;;;;10.97;7.07;;;;;;;4.45;53.88;98533.53;8331272;28;20518;-62
2021/03/18 00:34:24;;;;;;;10.67;7.17;;;;;;;4.36;53.88;98536.19;8329987;28;20212;-62
2021/03/18 00:38:26;;;;;;;13.53;8.33;;;;;;;4.38;54.17;98542.16;8264749;28;20237;-62
2021/03/18 00:42:28;;;;;;;11.77;7.57;;;;;;;4.44;54.02;98542.97;8265298;28;20217;-62
2021/03/18 00:46:30;;;;;;;16.67;8.63;;;;;;;4.41;53.89;98539.56;8265061;28;20213;-62
2021/03/18 00:50:37;;;;;;;10.23;7.73;;;;;;;4.41;53.85;98535.28;8265082;28;20263;-62
2021/03/18 00:54:39;;;;;;;10.40;7.70;;;;;;;4.33;54.07;98537.09;8265318;28;20198;-62
2021/03/18 00:58:41;;;;;;;11.30;7.57;;;;;;;4.35;54.17;98537.06;8262862;28;20248;-62
2021/03/18 01:02:43;;;;;;;9.17;6.80;;;;;;;4.35;54.04;98525.09;8265240;28;20216;-61
2021/03/18 01:06:46;;;;;;;10.23;7.13;;;;;;;4.26;54.09;98526.03;8265593;28;20210;-62
2021/03/18 01:10:49;;;;;;;9.33;6.63;;;;;;;4.25;54.37;98514.09;8264194;28;20236;-62
2021/03/18 01:14:51;;;;;;;10.80;6.83;;;;;;;4.20;54.24;98513.28;8264265;28;20209;-62
2021/03/18 01:18:55;;;;;;;9.00;6.80;;;;;;;4.08;54.95;98511.69;8265372;28;20631;-62
2021/03/18 01:22:58;;;;;;;8.50;6.67;;;;;;;4.21;54.34;98516.72;8265958;28;20277;-62
2021/03/18 01:27:00;;;;;;;9.37;7.33;;;;;;;4.10;54.34;98515.09;8270855;28;20305;-62
2021/03/18 01:31:02;;;;;;;8.67;6.90;;;;;;;4.07;54.41;98524.50;8270227;28;20205;-62
2021/03/18 01:35:08;;;;;;;9.17;7.10;;;;;;;4.04;54.54;98516.88;8281526;28;20623;-62
2021/03/18 01:39:11;;;;;;;9.23;6.00;;;;;;;4.03;54.32;98520.28;8335154;28;20216;-62
2021/03/18 01:43:12;;;;;;;9.67;6.13;;;;;;;3.97;54.61;98517.78;8336515;28;20637;-62
2021/03/18 01:47:14;;;;;;;9.00;6.00;;;;;;;4.01;55.03;98522.84;8334993;28;20295;-62
2021/03/18 01:51:18;;;;;;;7.60;6.40;;;;;;;3.95;55.13;98529.75;8333335;28;20205;-62
2021/03/18 01:55:25;;;;;;;9.37;5.93;;;;;;;3.99;54.88;98529.72;8336317;28;20212;-62
2021/03/18 01:59:26;;;;;;;7.03;5.40;;;;;;;4.14;54.67;98530.44;8334542;28;20236;-62
2021/03/18 02:03:29;;;;;;;6.37;5.77;;;;;;;4.13;54.90;98521.88;8335175;28;20200;-62
2021/03/18 02:07:31;;;;;;;7.23;5.87;;;;;;;3.95;55.68;98528.03;8335018;28;20251;-62
2021/03/18 02:11:34;;;;;;;7.37;6.10;;;;;;;4.09;55.47;98527.91;8335638;28;20267;-62
2021/03/18 02:15:38;;;;;;;8.17;5.80;;;;;;;4.14;55.53;98531.28;8334073;28;20319;-62
2021/03/18 02:20:10;;;;;;;8.33;6.20;;;;;;;4.13;55.68;98533.84;8334356;28;20231;-62
2021/03/18 02:24:24;;;;;;;8.57;6.30;;;;;;;4.26;55.66;98532.88;8334231;28;20197;-62
2021/03/18 02:28:37;;;;;;;8.17;5.83;;;;;;;4.18;56.05;98532.94;8335004;28;20215;-62
2021/03/18 02:32:54;;;;;;;7.70;5.87;;;;;;;4.34;56.17;98530.22;8333451;28;20196;-62
2021/03/18 02:37:02;;;;;;;7.23;5.90;;;;;;;4.31;56.12;98539.66;8333570;28;20536;-62
2021/03/18 02:41:07;;;;;;;9.57;6.07;;;;;;;4.43;56.19;98537.84;8333812;28;20196;-62
2021/03/18 02:45:10;;;;;;;9.43;6.67;;;;;;;4.33;57.07;98536.25;8334212;28;20205;-62
2021/03/18 02:49:13;;;;;;;9.80;7.23;;;;;;;4.24;57.45;98532.03;8334317;28;20226;-62
2021/03/18 02:53:17;;;;;;;12.20;7.30;;;;;;;4.47;56.74;98532.69;8334912;28;20639;-62
2021/03/18 02:57:21;;;;;;;9.40;7.60;;;;;;;4.56;56.74;98529.16;8333771;28;20228;-62
2021/03/18 03:01:23;;;;;;;10.13;7.40;;;;;;;4.63;56.93;98528.22;8333240;28;20604;-62
2021/03/18 03:05:26;;;;;;;10.67;7.87;;;;;;;4.65;56.71;98520.50;8333603;28;20210;-62
2021/03/18 03:09:29;;;;;;;10.10;6.80;;;;;;;4.65;55.72;98525.63;8331741;28;20208;-62
2021/03/18 03:13:34;;;;;;;8.87;7.10;;;;;;;4.56;55.98;98518.88;8332430;28;20232;-62
2021/03/18 03:17:36;;;;;;;9.00;7.00;;;;;;;4.65;55.96;98523.06;8331820;28;20259;-61
2021/03/18 03:21:39;;;;;;;9.60;7.27;;;;;;;4.64;55.45;98529.91;8332165;28;20244;-62
2021/03/18 03:25:42;;;;;;;11.03;7.23;;;;;;;4.60;55.98;98529.97;8332476;28;20227;-62
2021/03/18 03:29:45;;;;;;;10.83;7.20;;;;;;;4.54;56.26;98525.75;8331315;28;20219;-62
2021/03/18 03:33:47;;;;;;;10.20;6.97;;;;;;;4.57;56.63;98535.13;8333426;28;20223;-62
2021/03/18 03:37:50;;;;;;;9.30;6.63;;;;;;;4.63;56.28;98532.50;8332516;28;20244;-62
2021/03/18 03:41:52;;;;;;;9.87;7.53;;;;;;;4.59;56.53;98526.56;8331666;28;20216;-62
2021/03/18 03:45:55;;;;;;;12.10;7.30;;;;;;;4.53;57.05;98524.03;8332087;28;20201;-62
2021/03/18 03:49:57;;;;;;;10.80;7.27;;;;;;;4.56;56.53;98526.56;8332498;28;20208;-62
2021/03/18 03:54:02;;;;;;;11.00;7.73;;;;;;;4.68;56.30;98531.59;8331325;28;20299;-62
2021/03/18 03:58:11;;;;;;;8.80;7.43;;;;;;;4.70;56.16;98522.16;8332286;28;20300;-62
2021/03/18 04:02:14;;;;;;;9.47;6.93;;;;;;;4.61;56.28;98527.38;8331517;28;20201;-62
2021/03/18 04:06:17;;;;;;;9.97;7.70;;;;;;;4.65;56.62;98523.06;8332191;28;20204;-62
2021/03/18 04:10:20;;;;;;;11.63;7.70;;;;;;;4.63;56.44;98517.94;8330378;28;20236;-62
2021/03/18 04:14:26;;;;;;;10.23;7.60;;;;;;;4.66;56.69;98517.06;8330897;28;20235;-62
2021/03/18 04:18:30;;;;;;;11.87;7.80;;;;;;;4.62;56.47;98512.84;8331527;28;20244;-62
2021/03/18 04:22:33;;;;;;;11.17;7.83;;;;;;;4.62;56.86;98505.13;8331176;28;20215;-62
2021/03/18 04:26:36;;;;;;;8.13;7.10;;;;;;;4.60;56.85;98512.84;8330849;28;20232;-62
2021/03/18 04:30:40;;;;;;;9.50;7.47;;;;;;;4.65;56.86;98510.25;8330640;28;20219;-62
2021/03/18 04:34:43;;;;;;;7.83;6.93;;;;;;;4.42;57.18;98511.34;8330811;28;20215;-63
2021/03/18 04:38:45;;;;;;;9.50;7.27;;;;;;;4.28;57.60;98515.75;8331173;28;20224;-62
2021/03/18 04:42:48;;;;;;;9.80;7.43;;;;;;;4.54;57.20;98519.78;8330345;28;20216;-62
2021/03/18 04:46:51;;;;;;;9.87;7.27;;;;;;;4.39;57.51;98524.19;8331207;28;20208;-62
2021/03/18 04:50:53;;;;;;;9.70;7.50;;;;;;;4.30;57.82;98530.28;8331318;28;20648;-62
2021/03/18 04:54:55;;;;;;;10.93;7.37;;;;;;;4.53;56.99;98524.03;8329615;28;20213;-62
2021/03/18 04:58:58;;;;;;;9.80;7.40;;;;;;;4.53;57.37;98524.03;8333541;28;20235;-63
2021/03/18 05:03:02;;;;;;;8.83;7.40;;;;;;;4.65;56.77;98518.78;8337346;28;20506;-62
2021/03/18 05:07:05;;;;;;;11.87;6.77;;;;;;;4.71;57.00;98512.72;8336559;28;20216;-62
2021/03/18 05:11:07;;;;;;;9.57;7.23;;;;;;;4.64;57.02;98516.22;8336511;28;20228;-62
2021/03/18 05:15:12;;;;;;;12.47;7.90;;;;;;;4.69;56.89;98515.31;8336265;28;20212;-62
2021/03/18 05:19:16;;;;;;;11.37;7.97;;;;;;;4.64;57.05;98517.06;8336672;28;20251;-62
2021/03/18 05:23:18;;;;;;;14.43;8.53;;;;;;;4.65;56.79;98521.34;8334499;28;20627;-62
2021/03/18 05:27:20;;;;;;;10.13;7.60;;;;;;;4.72;56.80;98504.16;8336390;28;20220;-62
2021/03/18 05:31:23;;;;;;;9.40;7.57;;;;;;;4.70;56.65;98509.31;8336637;28;20205;-62
2021/03/18 05:35:26;;;;;;;9.20;7.50;;;;;;;4.79;56.92;98510.06;8336756;28;20232;-63
2021/03/18 05:39:29;;;;;;;8.93;7.77;;;;;;;4.76;56.79;98505.84;8335990;28;20242;-62
2021/03/18 05:43:31;;;;;;;8.67;7.17;;;;;;;4.74;56.74;98497.31;8335842;28;20215;-62
2021/03/18 05:47:34;;;;;;;10.30;8.20;;;;;;;4.72;56.76;98501.56;8336616;28;20216;-62
2021/03/18 05:51:39;;;;;;;10.93;7.17;;;;;;;4.77;56.60;98504.94;8336839;28;20585;-62
2021/03/18 05:55:41;;;;;;;13.00;8.27;;;;;;;4.82;56.67;98505.75;8334877;28;20208;-62
2021/03/18 05:59:44;;;;;;;10.17;7.57;;;;;;;4.72;56.66;98509.28;8335639;28;20343;-62
2021/03/18 06:03:47;;;;;;;13.90;8.00;;;;;;;4.84;56.69;98500.59;8336620;28;20538;-62
2021/03/18 06:07:50;;;;;;;11.53;7.83;;;;;;;4.80;56.52;98504.09;8335370;28;20216;-62
2021/03/18 06:11:52;;;;;;;12.23;8.17;;;;;;;4.80;56.26;98501.50;8361669;28;20272;-62
2021/03/18 06:15:54;;;;;;;11.20;8.13;;;;;;;4.84;56.23;98508.31;8368281;28;20640;-62
2021/03/18 06:19:57;;;;;;;12.17;8.80;;;;;;;4.85;56.27;98512.56;8369464;28;20231;-62
2021/03/18 06:24:03;;;;;;;11.53;9.00;;;;;;;4.82;56.69;98507.47;8367919;28;20218;-62
2021/03/18 06:28:16;;;;;;;14.27;10.10;;;;;;;4.82;56.28;98508.31;8368409;28;20220;-62
2021/03/18 06:32:19;;;;;;;11.63;9.50;;;;;;;4.94;55.84;98515.00;8368680;28;20250;-62
2021/03/18 06:36:23;;;;;;;10.93;8.70;;;;;;;5.05;55.61;98502.88;8366894;28;20263;-62
2021/03/18 06:40:27;;;;;;;10.53;8.47;;;;;;;5.07;55.15;98503.69;8366450;28;20230;-63
2021/03/18 06:44:30;;;;;;;13.57;8.60;;;;;;;6.03;53.45;98504.81;8367150;28;20204;-63
2021/03/18 06:48:38;;;;;;;11.50;8.47;;;;;;;6.75;51.07;98503.47;8366807;28;20208;-64
2021/03/18 06:52:40;;;;;;;9.33;7.50;;;;;;;6.68;51.40;98507.03;8366270;28;20200;-63
2021/03/18 06:56:52;;;;;;;12.37;8.67;;;;;;;6.43;52.53;98506.69;8365366;28;20257;-63
2021/03/18 07:00:55;;;;;;;10.40;7.87;;;;;;;6.23;52.19;98507.06;8364912;28;20204;-63
2021/03/18 07:04:58;;;;;;;11.77;8.10;;;;;;;6.24;52.14;98512.19;8335042;28;20212;-63
2021/03/18 07:09:08;;;;;;;10.60;8.53;;;;;;;6.13;53.00;98515.78;8331836;28;20227;-62
2021/03/18 07:13:19;;;;;;;11.10;7.93;;;;;;;6.16;52.97;98508.88;8331935;28;20236;-63
2021/03/18 07:17:28;;;;;;;9.90;8.00;;;;;;;6.18;53.12;98509.69;8331511;28;20232;-62
2021/03/18 07:21:39;;;;;;;9.57;7.80;;;;;;;6.10;53.81;98508.16;8331496;28;20208;-63
2021/03/18 07:25:46;;;;;;;14.20;8.83;;;;;;;6.14;53.75;98520.09;8331955;28;20216;-63
2021/03/18 07:29:51;;;;;;;11.27;8.80;;;;;;;6.11;53.72;98517.56;8331906;28;20644;-62
2021/03/18 07:33:53;;;;;;;11.90;9.00;;;;;;;6.09;53.63;98514.16;8331888;28;20200;-63
2021/03/18 07:37:55;;;;;;;11.03;8.50;;;;;;;6.46;53.33;98509.19;8330714;28;20569;-63
2021/03/18 07:41:59;;;;;;;13.07;8.90;;;;;;;6.49;52.56;98516.84;8331150;28;20259;-62
2021/03/18 07:46:02;;;;;;;10.37;8.60;;;;;;;6.66;52.45;98511.38;8331527;28;20227;-63
2021/03/18 07:50:06;;;;;;;13.67;8.73;;;;;;;6.78;51.81;98510.31;8331577;28;20312;-62
2021/03/18 07:54:12;;;;;;;11.70;8.03;;;;;;;7.29;51.34;98502.34;8330915;28;20212;-63
2021/03/18 07:58:14;;;;;;;10.70;8.70;;;;;;;7.39;50.96;98506.41;8330597;28;20240;-63
2021/03/18 08:02:18;;;;;;;11.83;7.70;;;;;;;7.69;50.01;98511.72;8330757;28;20274;-63
2021/03/18 08:06:48;;;;;;;10.17;8.27;;;;;;;7.83;50.15;98511.38;8330538;28;20212;-62
2021/03/18 08:10:50;;;;;;;12.07;8.57;;;;;;;8.36;49.04;98504.00;8329962;28;20251;-64
2021/03/18 08:15:18;;;;;;;9.30;7.97;;;;;;;8.38;48.36;98502.22;8330538;28;20211;-64
2021/03/18 08:19:21;;;;;;;9.30;7.40;;;;;;;8.38;47.44;98497.06;8330549;28;20228;-64
2021/03/18 08:23:37;;;;;;;8.03;3.80;;;;;;;11.18;55.24;98512.25;8329928;28;20291;-64
2021/03/18 08:27:39;;;;;;;8.90;6.27;;;;;;;11.80;44.66;98500.28;8330242;28;20208;-63
2021/03/18 08:31:47;;;;;;;6.73;5.40;;;;;;;12.36;40.33;98499.69;8329917;28;20632;-64
2021/03/18 08:35:50;;;;;;;6.60;5.20;;;;;;;12.59;38.61;98490.06;8329653;28;20270;-63
2021/03/18 08:39:52;;;;;;;5.47;4.97;;;;;;;12.66;37.62;98491.44;8331530;28;20228;-63
2021/03/18 08:44:15;;;;;;;7.17;4.70;;;;;;;12.31;38.53;98492.09;8337640;28;20291;-63
2021/03/18 08:48:19;;;;;;;11.90;5.37;;;;;;;13.14;37.05;98491.91;8362005;28;20215;-63
2021/03/18 08:52:37;;;;;;;7.37;5.00;;;;;;;13.42;36.26;98488.88;8362609;28;20211;-62
2021/03/18 08:56:42;;;;;;;7.87;4.80;;;;;;;13.53;37.76;98489.22;8335740;28;20208;-63
2021/03/18 09:00:46;;;;;;;7.60;4.67;;;;;;;13.77;36.97;98481.97;8328970;28;20293;-63
2021/03/18 09:04:49;;;;;;;7.83;4.60;;;;;;;14.13;35.41;98481.06;8329860;28;20235;-61
2021/03/18 09:08:52;;;;;;;5.93;4.40;;;;;;;13.45;37.63;98476.56;8329764;28;20212;-62
2021/03/18 09:12:56;;;;;;;9.87;4.37;;;;;;;13.35;38.46;98475.34;8328256;28;20232;-62
2021/03/18 09:17:03;;;;;;;5.50;4.60;;;;;;;12.89;35.02;98475.69;8329032;28;20219;-63
2021/03/18 09:21:12;;;;;;;6.20;4.93;;;;;;;13.44;34.17;98474.03;8330645;28;20225;-63
2021/03/18 09:25:15;;;;;;;7.87;5.93;;;;;;;13.39;34.39;98470.84;8329592;28;20299;-63
2021/03/18 09:29:26;;;;;;;8.97;5.30;;;;;;;11.98;36.93;98465.81;8329681;28;20208;-62
2021/03/18 09:33:31;;;;;;;7.20;4.87;;;;;;;11.23;37.96;98456.72;8329250;28;20566;-63
2021/03/18 09:37:33;;;;;;;5.73;4.80;;;;;;;10.81;38.53;98469.56;8328869;28;20233;-66
2021/03/18 09:41:38;;;;;;;5.40;4.20;;;;;;;10.73;37.93;98462.06;8328445;28;20224;-66
2021/03/18 09:45:40;;;;;;;6.97;4.17;;;;;;;10.31;38.70;98470.50;8333118;28;20226;-65
2021/03/18 09:49:43;;;;;;;5.13;4.63;;;;;;;9.70;40.13;98463.88;8334926;28;20709;-66
2021/03/18 09:53:55;;;;;;;4.70;4.00;;;;;;;9.65;39.79;98462.34;8334445;28;20204;-66
2021/03/18 09:57:59;;;;;;;4.50;4.10;;;;;;;9.63;39.69;98451.19;8334902;28;20217;-66
2021/03/18 10:02:01;;;;;;;3.93;3.53;;;;;;;10.13;38.27;98448.66;8334702;28;20204;-66
2021/03/18 10:06:10;;;;;;;3.70;3.37;;;;;;;11.61;34.64;98441.34;8333525;28;20622;-66
2021/03/18 10:10:19;;;;;;;3.23;2.93;;;;;;;12.71;33.50;98435.75;8334650;28;20228;-65
2021/03/18 10:14:23;;;;;;;3.60;3.30;;;;;;;13.30;31.48;98441.72;8334493;28;20209;-66
2021/03/18 10:18:39;;;;;;;4.33;3.47;;;;;;;12.59;32.18;98431.13;8333665;28;20283;-67
2021/03/18 10:22:46;;;;;;;3.63;3.30;;;;;;;11.65;34.37;98434.28;8333942;28;20299;-66
2021/03/18 10:26:48;;;;;;;3.40;3.10;;;;;;;13.05;32.63;98423.81;8333356;28;20687;-65
2021/03/18 10:30:51;;;;;;;3.50;3.20;;;;;;;13.68;31.19;98425.16;8333014;28;20609;-66
2021/03/18 10:34:54;;;;;;;3.20;2.70;;;;;;;14.23;28.65;98411.09;8334108;28;20280;-68
2021/03/18 10:38:59;;;;;;;3.97;3.00;;;;;;;14.37;29.16;98407.78;8334286;28;20675;-67
2021/03/18 10:43:01;;;;;;;4.33;3.33;;;;;;;14.53;28.33;98398.22;8333458;28;20208;-66
2021/03/18 10:47:17;;;;;;;3.40;3.10;;;;;;;13.24;31.07;98404.75;8333299;28;20213;-67
2021/03/18 10:51:20;;;;;;;3.97;3.57;;;;;;;12.43;32.54;98399.81;8333673;28;20212;-66
2021/03/18 10:55:27;;;;;;;4.20;3.07;;;;;;;13.24;30.70;98396.94;8331672;28;20448;-66
2021/03/18 10:59:29;;;;;;;3.13;2.83;;;;;;;14.28;28.96;98386.50;8333084;28;20647;-66
2021/03/18 11:03:33;;;;;;;3.00;2.70;;;;;;;14.76;27.51;98383.16;8332229;28;20201;-66
2021/03/18 11:07:35;;;;;;;3.30;2.90;;;;;;;13.30;30.04;98381.06;8332718;28;20350;-66
2021/03/18 11:11:53;;;;;;;5.40;3.67;;;;;;;12.31;33.84;98379.56;8332317;28;20224;-64
2021/03/18 11:15:58;;;;;;;6.10;4.13;;;;;;;11.30;36.73;98379.53;8331841;28;20205;-64
2021/03/18 11:20:13;;;;;;;4.30;3.67;;;;;;;10.88;37.68;98375.16;8331733;28;20297;-65
2021/03/18 11:24:18;;;;;;;5.17;4.33;;;;;;;10.75;38.81;98367.84;8331240;28;20609;-63
2021/03/18 11:28:20;;;;;;;4.17;3.77;;;;;;;10.56;38.39;98380.66;8331547;28;20211;-62
2021/03/18 11:32:23;;;;;;;5.17;4.20;;;;;;;10.58;38.12;98375.41;8331545;28;20624;-62
2021/03/18 11:36:26;;;;;;;5.80;3.90;;;;;;;10.09;37.76;98367.69;8331945;28;20232;-62
2021/03/18 11:40:31;;;;;;;7.70;3.80;;;;;;;10.29;37.40;98363.53;8330525;28;20265;-62
2021/03/18 11:44:33;;;;;;;5.10;4.00;;;;;;;10.11;38.34;98363.31;8330998;28;20215;-62
2021/03/18 11:48:35;;;;;;;4.73;4.10;;;;;;;10.02;39.11;98362.81;8337210;28;20212;-65
2021/03/18 11:52:38;;;;;;;4.73;3.67;;;;;;;10.18;37.90;98359.59;8331350;28;20570;-65
2021/03/18 11:56:40;;;;;;;5.33;3.50;;;;;;;10.17;38.14;98357.91;8331884;28;20205;-65
2021/03/18 12:00:42;;;;;;;4.17;3.67;;;;;;;10.03;39.59;98349.78;8331900;28;20259;-65
2021/03/18 12:04:44;;;;;;;4.87;3.90;;;;;;;9.76;40.52;98336.09;8330904;28;20274;-65
2021/03/18 12:08:47;;;;;;;4.83;3.53;;;;;;;9.81;40.02;98336.78;8330909;28;20239;-65
2021/03/18 12:12:50;;;;;;;5.57;3.33;;;;;;;9.78;40.06;98332.53;8330568;28;20228;-65
2021/03/18 12:16:52;;;;;;;3.47;2.70;;;;;;;9.70;38.77;98328.56;8330255;28;20208;-65
2021/03/18 12:20:54;;;;;;;2.80;2.30;;;;;;;9.27;36.69;98336.03;8328579;28;20322;-66
2021/03/18 12:24:57;;;;;;;4.50;2.30;;;;;;;9.63;37.16;98327.91;8330387;28;20236;-65
2021/03/18 12:28:59;;;;;;;3.30;2.27;;;;;;;9.67;36.55;98326.94;8329749;28;20628;-65
2021/03/18 12:33:01;;;;;;;3.17;2.30;;;;;;;9.66;36.12;98311.47;8330670;28;20605;-65
2021/03/18 12:37:03;;;;;;;2.57;2.23;;;;;;;9.38;37.08;98315.00;8330935;28;20231;-65
2021/03/18 12:41:06;;;;;;;2.40;2.10;;;;;;;9.73;36.23;98310.34;8331497;28;20231;-65
2021/03/18 12:45:10;;;;;;;4.53;2.47;;;;;;;9.79;36.34;98305.78;8330731;28;20573;-65
2021/03/18 12:49:12;;;;;;;2.90;2.50;;;;;;;9.99;36.12;98296.47;8327720;28;20300;-65
2021/03/18 12:53:15;;;;;;;3.27;2.70;;;;;;;9.91;34.72;98296.75;8330266;28;20212;-65
2021/03/18 12:57:18;;;;;;;3.10;2.73;;;;;;;10.12;33.68;98281.34;8330259;28;20660;-65
2021/03/18 13:01:20;;;;;;;3.97;2.50;;;;;;;9.15;34.42;98279.59;8330215;28;20604;-64
2021/03/18 13:05:22;;;;;;;4.33;2.60;;;;;;;9.43;34.84;98274.31;8330837;28;20231;-64
2021/03/18 13:09:25;;;;;;;4.17;2.50;;;;;;;9.89;35.32;98264.91;8330280;28;20567;-66
2021/03/18 13:13:29;;;;;;;2.90;2.63;;;;;;;10.11;34.76;98259.78;8327363;28;20224;-65
2021/03/18 13:17:31;;;;;;;2.67;2.20;;;;;;;10.04;34.65;98258.34;8330221;28;20633;-65
2021/03/18 13:21:34;;;;;;;3.00;2.70;;;;;;;10.18;34.37;98250.91;8334465;28;20527;-65
2021/03/18 13:25:36;;;;;;;3.00;2.53;;;;;;;10.37;35.47;98240.69;8335073;28;20298;-65
2021/03/18 13:29:38;;;;;;;2.70;2.50;;;;;;;10.57;35.38;98244.25;8335505;28;20539;-65
2021/03/18 13:33:40;;;;;;;4.00;2.70;;;;;;;10.70;34.90;98235.09;8334903;28;20536;-64
2021/03/18 13:37:42;;;;;;;3.30;2.50;;;;;;;11.21;34.46;98226.94;8336252;28;20232;-65
2021/03/18 13:41:44;;;;;;;3.33;2.90;;;;;;;10.97;34.82;98216.72;8335530;28;20288;-65
2021/03/18 13:45:47;;;;;;;4.30;3.00;;;;;;;10.75;36.16;98216.75;8336258;28;20208;-65
2021/03/18 13:49:49;;;;;;;3.40;3.00;;;;;;;11.03;35.67;98200.06;8335008;28;20216;-65
2021/03/18 13:53:52;;;;;;;3.17;2.83;;;;;;;10.81;35.36;98194.94;8335122;28;20208;-65
2021/03/18 13:57:54;;;;;;;3.03;2.73;;;;;;;11.00;35.99;98198.44;8336541;28;20228;-64
2021/03/18 14:01:57;;;;;;;4.37;3.17;;;;;;;9.75;35.25;98182.66;8335493;28;20278;-64
2021/03/18 14:05:59;;;;;;;5.07;2.47;;;;;;;10.26;35.70;98177.28;8334567;28;20593;-64
2021/03/18 14:10:02;;;;;;;2.50;2.27;;;;;;;10.23;34.76;98173.06;8336045;28;20270;-65
2021/03/18 14:14:11;;;;;;;2.87;2.37;;;;;;;10.26;35.97;98166.91;8336238;28;20247;-65
2021/03/18 14:18:16;;;;;;;2.50;2.10;;;;;;;10.19;34.22;98155.97;8335191;28;20311;-66
2021/03/18 14:22:18;;;;;;;2.80;2.60;;;;;;;9.70;34.56;98152.69;8334871;28;20212;-65
2021/03/18 14:26:20;;;;;;;4.17;2.80;;;;;;;10.76;33.88;98149.34;8335860;28;20216;-65
2021/03/18 14:30:22;;;;;;;4.00;2.57;;;;;;;10.49;35.31;98146.16;8332729;28;20263;-64
2021/03/18 14:34:25;;;;;;;2.53;2.20;;;;;;;10.21;35.13;98149.00;8334038;28;20219;-64
2021/03/18 14:38:27;;;;;;;3.47;2.40;;;;;;;10.98;34.06;98129.44;8332088;28;20693;-64
2021/03/18 14:42:31;;;;;;;3.40;2.23;;;;;;;10.81;34.93;98119.81;8333913;28;20208;-64
2021/03/18 14:46:34;;;;;;;3.10;2.33;;;;;;;11.37;33.54;98124.25;8334362;28;20204;-64
2021/03/18 14:50:38;;;;;;;2.93;1.90;;;;;;;11.65;31.98;98110.88;8334846;28;20208;-64
2021/03/18 14:54:40;;;;;;;3.43;2.20;;;;;;;11.68;31.78;98107.28;8321228;28;20276;-64
2021/03/18 14:58:42;;;;;;;4.00;2.10;;;;;;;11.54;31.54;98101.00;8333770;28;20239;-63
2021/03/18 15:02:44;;;;;;;2.87;1.90;;;;;;;11.98;31.71;98110.22;8334346;28;20589;-63
2021/03/18 15:06:48;;;;;;;3.27;1.97;;;;;;;12.02;31.58;98100.56;8366440;28;20212;-64
2021/03/18 15:10:50;;;;;;;3.40;2.50;;;;;;;12.04;30.56;98098.72;8366338;28;20227;-63
2021/03/18 15:15:08;;;;;;;3.70;2.03;;;;;;;12.10;29.58;98091.47;8367796;28;20612;-63
2021/03/18 15:19:11;;;;;;;5.50;1.90;;;;;;;12.07;30.57;98085.56;8366686;28;20228;-63
2021/03/18 15:23:14;;;;;;;3.80;1.70;;;;;;;11.99;30.38;98085.94;8367470;28;20216;-63
2021/03/18 15:27:16;;;;;;;2.80;2.00;;;;;;;11.19;31.06;98084.44;8366405;28;20207;-63
2021/03/18 15:31:18;;;;;;;4.47;1.80;;;;;;;11.52;30.39;98086.44;8346780;28;20617;-64
2021/03/18 15:35:20;;;;;;;3.17;2.10;;;;;;;11.02;30.95;98072.22;8364047;28;20285;-64
2021/03/18 15:39:23;;;;;;;5.77;2.50;;;;;;;10.79;30.83;98062.88;8365659;28;20232;-63
2021/03/18 15:43:25;;;;;;;3.47;3.10;;;;;;;11.00;31.37;98062.84;8367439;28;20204;-63
2021/03/18 15:47:28;;;;;;;2.57;1.57;;;;;;;10.98;31.23;98051.72;8365535;28;20247;-65
2021/03/18 15:51:30;;;;;;;5.03;1.90;;;;;;;10.56;31.67;98056.09;8365372;28;20203;-65
2021/03/18 15:55:34;;;;;;;2.03;1.70;;;;;;;10.58;31.54;98051.69;8344240;28;20254;-65
2021/03/18 15:59:36;;;;;;;3.63;1.90;;;;;;;10.35;31.78;98050.94;8332486;28;20220;-65
2021/03/18 16:03:40;;;;;;;6.33;2.00;;;;;;;10.18;33.42;98051.63;8332963;28;20219;-63
2021/03/18 16:07:42;;;;;;;3.00;2.10;;;;;;;9.62;34.10;98043.56;8332091;28;20543;-63
2021/03/18 16:11:45;;;;;;;3.20;2.30;;;;;;;9.59;34.49;98044.50;8332464;28;20676;-64
2021/03/18 16:15:56;;;;;;;2.97;2.20;;;;;;;9.56;36.40;98045.47;8332720;28;20228;-64
2021/03/18 16:19:58;;;;;;;3.50;1.97;;;;;;;9.45;36.52;98046.78;8330233;28;20546;-64
2021/03/18 16:24:03;;;;;;;2.27;1.80;;;;;;;9.62;36.62;98043.56;8331914;28;20642;-64
2021/03/18 16:28:06;;;;;;;2.40;2.20;;;;;;;9.48;36.89;98051.81;8330102;28;20671;-64
2021/03/18 16:32:08;;;;;;;8.40;3.53;;;;;;;8.86;42.29;98056.69;8331540;28;20587;-64
2021/03/18 16:36:11;;;;;;;6.33;3.73;;;;;;;8.85;43.90;98065.34;8330103;28;20232;-64
2021/03/18 16:40:13;;;;;;;5.47;3.67;;;;;;;8.68;45.40;98062.50;8330673;28;20224;-63
2021/03/18 16:44:16;;;;;;;4.97;4.30;;;;;;;8.47;48.50;98059.78;8330620;28;20205;-63
2021/03/18 16:48:18;;;;;;;4.13;3.57;;;;;;;8.45;48.26;98046.09;8331554;28;20641;-65
2021/03/18 16:52:20;;;;;;;5.90;4.80;;;;;;;8.38;48.35;98045.44;8331839;28;20244;-65
2021/03/18 16:56:22;;;;;;;5.50;3.87;;;;;;;8.20;48.83;98039.13;8341171;28;20203;-65
2021/03/18 17:00:27;;;;;;;5.00;3.67;;;;;;;7.97;49.41;98044.22;8341374;28;20583;-66
2021/03/18 17:04:29;;;;;;;4.37;3.80;;;;;;;8.03;49.64;98038.88;8343065;28;20212;-67
2021/03/18 17:08:31;;;;;;;4.77;4.27;;;;;;;8.26;49.16;98034.69;8343042;28;20208;-67
2021/03/18 17:12:33;;;;;;;7.83;3.90;;;;;;;8.13;49.77;98039.41;8341558;28;20307;-66
2021/03/18 17:16:44;;;;;;;4.40;4.00;;;;;;;8.03;49.70;98039.72;8342346;28;20292;-66
2021/03/18 17:20:46;;;;;;;4.83;3.73;;;;;;;8.09;49.63;98037.81;8341357;28;20232;-66
2021/03/18 17:25:07;;;;;;;7.07;5.10;;;;;;;7.82;50.19;98028.38;8341082;28;20197;-66
2021/03/18 17:29:10;;;;;;;10.37;9.37;;;;;;;7.87;49.88;98028.22;8341011;28;20212;-66
2021/03/18 17:33:15;;;;;;;10.03;9.03;;;;;;;7.97;49.35;98028.75;8341149;28;20211;-66
2021/03/18 17:37:17;;;;;;;15.77;14.07;;;;;;;7.90;49.90;98027.25;8341443;28;20268;-66
2021/03/18 17:41:19;;;;;;;20.27;18.17;;;;;;;7.92;49.25;98021.19;8340437;28;20240;-66
2021/03/18 17:45:21;;;;;;;16.50;13.90;;;;;;;7.86;49.61;98017.94;8340749;28;20208;-66
2021/03/18 17:49:24;;;;;;;18.33;15.93;;;;;;;7.78;49.87;98026.75;8340850;28;20208;-66
2021/03/18 17:53:30;;;;;;;12.30;9.90;;;;;;;7.79;49.91;98020.72;8340782;28;20204;-66
2021/03/18 17:57:32;;;;;;;12.03;8.30;;;;;;;7.71;50.12;98032.16;8340734;28;20246;-66
2021/03/18 18:01:34;;;;;;;6.87;6.17;;;;;;;7.47;50.58;98024.31;8340712;28;20228;-65
2021/03/18 18:05:37;;;;;;;10.17;8.07;;;;;;;7.61;50.30;98021.31;8337997;28;20200;-65
2021/03/18 18:09:39;;;;;;;7.10;6.40;;;;;;;7.52;51.31;98019.00;8335876;28;20212;-66
2021/03/18 18:13:41;;;;;;;8.03;6.20;;;;;;;7.33;51.96;98017.03;8334546;28;20316;-66
2021/03/18 18:17:44;;;;;;;9.10;6.30;;;;;;;7.34;52.08;98017.84;8335158;28;20200;-66
2021/03/18 18:21:48;;;;;;;8.10;5.60;;;;;;;7.36;52.10;98008.34;8334842;28;20275;-66
2021/03/18 18:25:50;;;;;;;6.77;6.17;;;;;;;7.24;52.46;98009.56;8334451;28;20215;-66
2021/03/18 18:29:52;;;;;;;7.60;6.47;;;;;;;7.27;52.64;98001.72;8335781;28;20342;-66
2021/03/18 18:33:55;;;;;;;6.93;6.30;;;;;;;7.20;52.53;98006.25;8334984;28;20235;-66
2021/03/18 18:37:59;;;;;;;8.57;6.00;;;;;;;7.24;52.26;98004.41;8335028;28;20327;-66
2021/03/18 18:42:01;;;;;;;8.47;6.63;;;;;;;7.17;52.62;98006.31;8335343;28;20224;-66
2021/03/18 18:46:03;;;;;;;6.57;5.90;;;;;;;7.11;53.03;98003.09;8333650;28;20208;-65
2021/03/18 18:50:06;;;;;;;9.43;8.23;;;;;;;7.20;52.57;98003.66;8333932;28;20208;-66
2021/03/18 18:54:10;;;;;;;8.40;7.60;;;;;;;7.13;52.39;97999.56;8333171;28;20204;-66
2021/03/18 18:58:11;;;;;;;19.03;5.70;;;;;;;9.92;66.48;98000.94;8333336;28;20284;-67
2021/03/18 19:02:14;;;;;;;11.17;9.60;;;;;;;8.84;49.67;97983.59;8334239;28;20212;-65
2021/03/18 19:06:16;;;;;;;12.10;10.20;;;;;;;8.12;50.22;97988.72;8331304;28;20224;-64
2021/03/18 19:10:19;;;;;;;11.80;8.93;;;;;;;7.92;50.39;97982.50;8334787;28;20231;-65
2021/03/18 19:14:21;;;;;;;12.20;10.47;;;;;;;7.73;50.92;97984.84;8334595;28;20208;-65